Time;durP1;ratioP1;P1;durP2;ratioP2;P2;SDS_P1;SDS_P2;PMS_P1;PMS_P2;Temp;Humidity;BMP_temperature;BMP_pressure;BME280_temperature;BME280_humidity;BME280_pressure;Samples;Min_cycle;Max_cycle;Signal;HPM_P1;HPM_P2
2023/02/26 00:00:42;;;;;;;5.30;3.00;;;;;;;0.37;80.94;98634.48;218676;1257;140280;-67
2023/02/26 00:06:06;;;;;;;8.90;5.30;;;;;;;0.35;80.97;98646.46;218949;1257;139824;-66
2023/02/26 00:11:11;;;;;;;3.80;3.40;;;;;;;0.33;81.07;98648.10;217810;1257;138899;-66
2023/02/26 00:16:28;;;;;;;4.80;3.20;;;;;;;0.27;81.10;98661.52;217772;1256;138973;-67
2023/02/26 00:21:32;;;;;;;5.00;3.10;;;;;;;0.25;80.82;98665.27;218055;1257;139957;-68
2023/02/26 00:26:35;;;;;;;10.00;3.80;;;;;;;0.25;80.79;98664.70;218357;1256;139462;-65
2023/02/26 00:31:38;;;;;;;4.40;3.00;;;;;;;0.27;80.81;98669.84;218457;1257;140300;-67
2023/02/26 00:37:09;;;;;;;5.40;3.70;;;;;;;0.24;81.04;98673.89;218409;1257;231007;-66
2023/02/26 00:42:13;;;;;;;5.30;2.50;;;;;;;0.24;80.82;98684.13;217824;1258;139554;-66
2023/02/26 00:47:22;;;;;;;8.10;3.30;;;;;;;0.25;81.21;98690.86;218303;1257;139578;-71
2023/02/26 00:52:41;;;;;;;3.80;3.00;;;;;;;0.22;80.84;98701.13;218929;1256;138818;-65
2023/02/26 00:57:45;;;;;;;3.10;2.20;;;;;;;0.18;80.92;98696.23;219230;1255;139326;-66
2023/02/26 01:02:49;;;;;;;9.40;3.10;;;;;;;0.14;80.95;98695.15;218617;1257;138914;-67
2023/02/26 01:08:00;;;;;;;4.70;2.60;;;;;;;0.13;80.60;98696.15;218159;1257;140193;-67
2023/02/26 01:13:03;;;;;;;5.20;2.40;;;;;;;0.10;80.81;98695.05;220532;1256;140114;-68
2023/02/26 01:18:41;;;;;;;4.10;2.80;;;;;;;0.07;81.14;98705.63;219936;1256;139914;-68
2023/02/26 01:23:49;;;;;;;5.80;2.80;;;;;;;0.08;80.80;98718.73;219618;1259;139929;-69
2023/02/26 01:28:55;;;;;;;8.70;3.30;;;;;;;0.13;80.67;98721.19;220071;1257;141052;-70
2023/02/26 01:34:08;;;;;;;7.90;2.40;;;;;;;0.15;80.79;98727.17;217866;1256;139916;-67
2023/02/26 01:39:29;;;;;;;5.00;2.90;;;;;;;0.10;80.97;98733.05;219425;1256;143108;-67
2023/02/26 01:44:39;;;;;;;6.60;3.10;;;;;;;0.12;81.09;98732.84;218419;1261;140810;-66
2023/02/26 01:49:43;;;;;;;3.80;2.50;;;;;;;0.10;80.53;98742.65;218187;1259;139685;-66
2023/02/26 01:54:46;;;;;;;8.60;2.80;;;;;;;0.07;80.91;98752.66;218152;1256;138863;-67
2023/02/26 01:59:51;;;;;;;4.70;2.80;;;;;;;0.09;80.82;98762.29;218117;1256;140393;-67
2023/02/26 02:04:54;;;;;;;4.10;2.20;;;;;;;0.07;80.59;98774.23;217924;1256;139094;-66
2023/02/26 02:09:56;;;;;;;4.00;2.50;;;;;;;0.05;80.91;98778.21;217721;1257;139246;-67
2023/02/26 02:15:24;;;;;;;4.70;2.50;;;;;;;-0.03;81.00;98781.11;218583;1256;139934;-67
2023/02/26 02:21:09;;;;;;;4.40;2.80;;;;;;;-0.13;80.79;98789.85;217808;1256;139565;-66
2023/02/26 02:26:46;;;;;;;4.60;2.50;;;;;;;-0.24;80.93;98800.91;218238;1257;141478;-65
2023/02/26 02:31:59;;;;;;;3.00;1.70;;;;;;;-0.37;80.79;98812.25;218797;1257;141464;-67
2023/02/26 02:37:13;;;;;;;2.40;2.00;;;;;;;-0.47;80.87;98819.35;217754;1256;140517;-65
2023/02/26 02:42:28;;;;;;;4.50;3.00;;;;;;;-0.53;80.91;98827.59;218471;1257;140210;-66
2023/02/26 02:47:36;;;;;;;3.60;2.20;;;;;;;-0.55;81.07;98839.00;218552;1256;139445;-64
2023/02/26 02:52:47;;;;;;;4.40;2.80;;;;;;;-0.57;81.03;98850.89;217838;1257;140662;-65
2023/02/26 02:58:01;;;;;;;10.40;2.60;;;;;;;-0.57;81.19;98859.39;218777;1256;140239;-64
2023/02/26 03:03:28;;;;;;;2.90;2.30;;;;;;;-0.58;81.22;98869.57;217951;1257;140488;-64
2023/02/26 03:08:37;;;;;;;3.10;2.20;;;;;;;-0.63;81.22;98876.61;220470;1257;139967;-67
2023/02/26 03:13:40;;;;;;;4.30;2.00;;;;;;;-0.65;81.23;98886.67;220516;1256;140821;-66
2023/02/26 03:19:42;;;;;;;8.00;2.50;;;;;;;-0.66;81.34;98893.65;219184;1257;139237;-65
2023/02/26 03:25:02;;;;;;;3.20;2.70;;;;;;;-0.62;81.13;98901.88;218491;1265;140524;-65
2023/02/26 03:30:45;;;;;;;5.90;1.60;;;;;;;-0.62;81.41;98908.45;220248;1257;139912;-65
2023/02/26 03:36:10;;;;;;;5.50;2.00;;;;;;;-0.60;81.38;98915.52;218741;1260;140595;-65
2023/02/26 03:41:23;;;;;;;3.30;1.90;;;;;;;-0.58;81.25;98923.09;219612;1256;139619;-66
2023/02/26 03:46:44;;;;;;;2.70;2.50;;;;;;;-0.54;81.53;98924.30;217717;1259;139440;-66
2023/02/26 03:51:48;;;;;;;2.60;2.30;;;;;;;-0.55;81.07;98931.18;218524;1260;139877;-64
2023/02/26 03:56:52;;;;;;;3.10;2.10;;;;;;;-0.57;81.45;98937.48;217917;1260;139647;-64
2023/02/26 04:02:11;;;;;;;2.40;2.00;;;;;;;-0.58;81.41;98946.76;217963;1257;139405;-65
2023/02/26 04:07:17;;;;;;;2.90;1.90;;;;;;;-0.60;81.28;98954.48;217713;1257;140310;-65
2023/02/26 04:12:22;;;;;;;2.00;1.80;;;;;;;-0.66;81.15;98959.21;218228;1256;139318;-64
2023/02/26 04:17:26;;;;;;;5.00;2.40;;;;;;;-0.72;81.36;98968.91;217545;1257;447909;-63
2023/02/26 04:22:28;;;;;;;1.70;1.60;;;;;;;-0.73;81.42;98972.89;218332;1257;139857;-66
2023/02/26 04:27:32;;;;;;;3.70;2.30;;;;;;;-0.70;81.67;98981.75;218867;1257;140626;-66
2023/02/26 04:32:35;;;;;;;5.70;3.00;;;;;;;-0.65;81.87;98995.09;217996;1258;139844;-68
2023/02/26 04:37:38;;;;;;;5.00;2.10;;;;;;;-0.62;81.73;98993.45;218801;1256;141290;-67
2023/02/26 04:42:41;;;;;;;1.90;1.70;;;;;;;-0.61;81.46;98998.92;218503;1257;139630;-68
2023/02/26 04:47:45;;;;;;;4.00;1.70;;;;;;;-0.60;81.40;99005.09;218404;1260;139700;-67
2023/02/26 04:52:48;;;;;;;2.50;1.60;;;;;;;-0.60;81.63;99013.46;219389;1256;139898;-68
2023/02/26 04:57:53;;;;;;;3.00;2.20;;;;;;;-0.60;81.12;99018.90;219877;1259;140745;-68
2023/02/26 05:02:56;;;;;;;3.10;2.80;;;;;;;-0.57;81.12;99028.16;219853;1257;139743;-69
2023/02/26 05:07:59;;;;;;;6.40;1.60;;;;;;;-0.55;80.77;99034.08;218482;1256;140296;-68
2023/02/26 05:13:02;;;;;;;1.30;1.20;;;;;;;-0.54;80.43;99038.85;220436;1257;140065;-71
2023/02/26 05:18:04;;;;;;;2.00;1.90;;;;;;;-0.55;80.86;99042.50;220407;1257;139254;-70
2023/02/26 05:23:07;;;;;;;2.90;1.20;;;;;;;-0.56;80.58;99049.92;217752;1257;139937;-68
2023/02/26 05:28:09;;;;;;;2.00;1.80;;;;;;;-0.57;80.41;99052.17;218691;1259;141146;-69
2023/02/26 05:33:12;;;;;;;1.90;1.50;;;;;;;-0.56;80.37;99066.07;220132;1256;139887;-68
2023/02/26 05:38:14;;;;;;;1.20;1.10;;;;;;;-0.57;80.39;99071.86;217814;1260;140001;-64
2023/02/26 05:43:16;;;;;;;1.90;1.50;;;;;;;-0.57;80.02;99079.76;218949;1257;140428;-67
2023/02/26 05:48:19;;;;;;;1.30;1.30;;;;;;;-0.57;80.15;99092.69;217503;1260;140756;-65
2023/02/26 05:53:21;;;;;;;2.00;1.40;;;;;;;-0.57;79.96;99102.88;218794;1258;140430;-65
2023/02/26 05:58:25;;;;;;;2.40;2.20;;;;;;;-0.59;79.70;99115.77;218054;1257;139883;-64
2023/02/26 06:03:28;;;;;;;2.40;1.80;;;;;;;-0.60;80.16;99121.14;217719;1259;141400;-64
2023/02/26 06:08:30;;;;;;;1.80;1.70;;;;;;;-0.60;79.94;99131.95;218354;1257;139922;-65
2023/02/26 06:13:33;;;;;;;2.20;1.50;;;;;;;-0.61;80.02;99136.45;217853;1257;140895;-65
2023/02/26 06:18:36;;;;;;;6.10;2.20;;;;;;;-0.62;80.03;99144.50;217690;1260;139598;-64
2023/02/26 06:23:38;;;;;;;2.90;2.60;;;;;;;-0.61;80.26;99155.98;217686;1260;140600;-64
2023/02/26 06:28:40;;;;;;;4.80;1.80;;;;;;;-0.61;80.30;99166.57;217715;1260;139598;-66
2023/02/26 06:33:43;;;;;;;3.40;1.40;;;;;;;-0.59;80.25;99184.48;218143;1257;139474;-66
2023/02/26 06:38:47;;;;;;;1.30;1.20;;;;;;;-0.55;80.41;99194.89;217903;1257;140448;-64
2023/02/26 06:43:50;;;;;;;2.00;1.70;;;;;;;-0.53;80.43;99207.73;218531;1260;139614;-65
2023/02/26 06:48:55;;;;;;;2.80;2.10;;;;;;;-0.51;80.32;99215.54;217986;1260;140165;-71
2023/02/26 06:53:58;;;;;;;6.80;2.70;;;;;;;-0.49;80.25;99221.88;218177;1260;140020;-66
2023/02/26 06:59:01;;;;;;;4.60;2.50;;;;;;;-0.45;80.50;99233.82;218607;1257;141533;-65
2023/02/26 07:04:03;;;;;;;3.40;2.10;;;;;;;-0.43;80.49;99244.21;219107;1258;139079;-65
2023/02/26 07:09:07;;;;;;;3.40;2.20;;;;;;;-0.41;80.48;99250.89;220510;1257;140656;-67
2023/02/26 07:14:09;;;;;;;4.20;2.30;;;;;;;-0.37;80.35;99258.05;220538;1256;141362;-68
2023/02/26 07:19:11;;;;;;;2.20;2.10;;;;;;;-0.33;80.39;99257.64;219942;1257;141814;-67
2023/02/26 07:24:15;;;;;;;3.90;2.30;;;;;;;-0.30;79.65;99267.98;219378;1257;141131;-64
2023/02/26 07:29:20;;;;;;;8.70;3.10;;;;;;;-0.32;79.85;99282.38;217942;1257;139951;-68
2023/02/26 07:34:23;;;;;;;6.40;2.70;;;;;;;-0.32;79.58;99295.58;219894;1256;140243;-66
2023/02/26 07:39:26;;;;;;;2.60;2.40;;;;;;;-0.30;79.51;99303.75;218996;1258;139431;-70
2023/02/26 07:44:31;;;;;;;3.10;2.40;;;;;;;-0.22;79.68;99316.09;219472;1260;140608;-69
2023/02/26 07:49:38;;;;;;;4.00;2.60;;;;;;;-0.19;79.50;99324.13;217595;1257;141184;-68
2023/02/26 07:54:43;;;;;;;2.50;1.90;;;;;;;-0.18;79.58;99329.91;217557;1258;139951;-66
2023/02/26 07:59:47;;;;;;;4.10;2.50;;;;;;;-0.15;79.69;99337.03;217819;1260;140738;-67
2023/02/26 08:04:51;;;;;;;2.70;2.50;;;;;;;-0.09;79.68;99341.48;218478;1257;139582;-66
2023/02/26 08:09:56;;;;;;;4.90;2.30;;;;;;;-0.10;79.36;99347.80;218252;1260;139720;-66
2023/02/26 08:15:00;;;;;;;2.10;1.50;;;;;;;-0.03;79.34;99352.83;218544;1257;139894;-66
2023/02/26 08:20:03;;;;;;;5.80;2.00;;;;;;;0.09;79.51;99362.90;218069;1260;138912;-68
2023/02/26 08:25:07;;;;;;;2.60;2.30;;;;;;;0.25;78.89;99365.44;217399;1257;139273;-66
2023/02/26 08:30:11;;;;;;;4.20;2.20;;;;;;;0.40;79.09;99374.77;217911;1257;232450;-65
2023/02/26 08:35:13;;;;;;;2.70;2.10;;;;;;;0.53;78.78;99385.10;218943;1260;139421;-67
2023/02/26 08:40:16;;;;;;;7.40;2.90;;;;;;;0.63;78.25;99392.14;217691;1257;150953;-64
2023/02/26 08:45:18;;;;;;;4.00;2.70;;;;;;;0.70;78.01;99396.36;218311;1257;140590;-63
2023/02/26 08:50:21;;;;;;;4.30;1.90;;;;;;;0.79;77.83;99400.02;217554;1260;139611;-62
2023/02/26 08:55:23;;;;;;;4.20;2.20;;;;;;;0.92;77.73;99409.56;218858;1257;140234;-64
2023/02/26 09:00:25;;;;;;;3.60;2.10;;;;;;;1.05;77.78;99417.21;217941;1259;139238;-62
2023/02/26 09:05:28;;;;;;;1.90;1.50;;;;;;;1.15;76.96;99424.10;218952;1257;140330;-66
2023/02/26 09:10:31;;;;;;;3.20;2.10;;;;;;;1.22;76.32;99433.27;220200;1256;141067;-63
2023/02/26 09:15:33;;;;;;;3.70;1.90;;;;;;;1.19;75.72;99443.04;217638;1257;139795;-67
2023/02/26 09:20:36;;;;;;;1.90;1.70;;;;;;;1.28;75.89;99448.82;220346;1256;246250;-67
2023/02/26 09:25:43;;;;;;;6.50;1.90;;;;;;;1.34;75.45;99461.55;220173;1256;139141;-67
2023/02/26 09:30:55;;;;;;;3.60;2.10;;;;;;;1.35;75.34;99472.27;217930;1257;140289;-66
2023/02/26 09:36:00;;;;;;;6.70;3.20;;;;;;;1.42;75.73;99484.09;217935;1260;140766;-65
2023/02/26 09:41:17;;;;;;;3.30;2.90;;;;;;;1.40;75.52;99490.77;217720;1257;140200;-67
2023/02/26 09:46:26;;;;;;;9.80;4.50;;;;;;;1.29;75.43;99503.65;218498;1260;141428;-66
2023/02/26 09:51:30;;;;;;;7.10;3.40;;;;;;;1.22;75.73;99510.02;218543;1257;141435;-65
2023/02/26 09:56:38;;;;;;;2.50;2.30;;;;;;;1.17;75.94;99510.56;218769;1256;140458;-67
2023/02/26 10:01:59;;;;;;;5.50;3.70;;;;;;;1.05;75.83;99522.25;217313;1260;140319;-66
2023/02/26 10:07:07;;;;;;;4.90;2.90;;;;;;;0.96;76.10;99530.02;217536;1260;140682;-66
2023/02/26 10:12:20;;;;;;;3.50;2.70;;;;;;;0.92;76.07;99535.98;217619;1257;140133;-66
2023/02/26 10:17:53;;;;;;;3.10;2.30;;;;;;;0.89;76.16;99544.78;217199;1256;142047;-65
2023/02/26 10:23:05;;;;;;;2.50;2.30;;;;;;;0.87;76.22;99557.23;218332;1257;140001;-65
2023/02/26 10:28:35;;;;;;;4.10;2.80;;;;;;;0.89;75.98;99567.95;217584;1257;139962;-67
2023/02/26 10:34:00;;;;;;;6.70;3.80;;;;;;;1.13;76.34;99572.57;218317;1257;139842;-65
2023/02/26 10:39:30;;;;;;;2.50;2.30;;;;;;;1.41;76.28;99582.39;218266;1257;139394;-65
2023/02/26 10:44:48;;;;;;;4.00;2.80;;;;;;;1.60;76.07;99582.64;217731;1259;140491;-66
2023/02/26 10:50:05;;;;;;;3.60;2.40;;;;;;;1.57;75.50;99595.61;217282;1256;139810;-66
2023/02/26 10:55:21;;;;;;;2.90;2.20;;;;;;;1.38;74.94;99606.24;217789;1256;141219;-67
2023/02/26 11:00:23;;;;;;;3.10;2.40;;;;;;;1.21;74.78;99617.54;219769;1256;139692;-67
2023/02/26 11:05:32;;;;;;;2.60;1.90;;;;;;;1.18;74.93;99620.48;220295;1257;140031;-68
2023/02/26 11:10:49;;;;;;;2.30;2.00;;;;;;;1.24;74.69;99621.98;220352;1256;140478;-65
2023/02/26 11:15:54;;;;;;;3.10;1.40;;;;;;;1.24;74.22;99629.92;220024;1257;140085;-64
2023/02/26 11:20:59;;;;;;;3.00;1.70;;;;;;;1.24;73.64;99634.78;220308;1256;141164;-66
2023/02/26 11:26:17;;;;;;;4.00;2.30;;;;;;;1.34;73.37;99640.48;219144;1256;140834;-67
2023/02/26 11:31:26;;;;;;;2.10;1.10;;;;;;;1.50;72.89;99644.98;217697;1256;139068;-68
2023/02/26 11:36:33;;;;;;;2.10;1.00;;;;;;;1.57;71.96;99651.30;218653;1257;140089;-63
2023/02/26 11:41:39;;;;;;;4.00;1.40;;;;;;;1.61;71.45;99655.34;217807;1256;138641;-66
2023/02/26 11:46:57;;;;;;;7.40;3.20;;;;;;;1.75;71.61;99658.96;218260;1256;139685;-65
2023/02/26 11:52:28;;;;;;;15.10;7.10;;;;;;;1.96;72.10;99671.38;218057;1257;139621;-66
2023/02/26 11:57:43;;;;;;;2.90;1.90;;;;;;;2.07;71.75;99679.59;217965;1260;140602;-64
2023/02/26 12:02:49;;;;;;;4.40;1.90;;;;;;;2.11;71.38;99681.59;217612;1257;138752;-65
2023/02/26 12:07:56;;;;;;;2.10;1.80;;;;;;;2.10;71.08;99691.48;217823;1257;139535;-66
2023/02/26 12:13:25;;;;;;;7.10;2.40;;;;;;;2.06;70.84;99700.21;218006;1256;138583;-64
2023/02/26 12:19:00;;;;;;;1.60;1.40;;;;;;;1.94;70.62;99704.71;217901;1256;139058;-66
2023/02/26 12:24:31;;;;;;;4.30;2.30;;;;;;;1.80;69.96;99711.34;217813;1257;140060;-62
2023/02/26 12:29:55;;;;;;;2.60;1.80;;;;;;;1.71;70.48;99719.89;217448;1256;139525;-65
2023/02/26 12:35:15;;;;;;;5.30;3.40;;;;;;;1.71;70.31;99721.15;217926;1257;138925;-63
2023/02/26 12:40:43;;;;;;;3.70;2.30;;;;;;;1.75;70.89;99725.58;217892;1256;139508;-66
2023/02/26 12:46:12;;;;;;;3.40;2.50;;;;;;;1.78;71.22;99725.55;219105;1256;140638;-62
2023/02/26 12:51:30;;;;;;;2.70;2.40;;;;;;;1.78;71.17;99721.84;217307;1260;139070;-66
2023/02/26 12:57:06;;;;;;;6.30;3.30;;;;;;;1.69;71.14;99722.73;218969;1256;139806;-65
2023/02/26 13:02:38;;;;;;;7.20;5.30;;;;;;;1.61;71.57;99722.80;218088;1257;139755;-63
2023/02/26 13:08:08;;;;;;;9.80;3.50;;;;;;;1.55;71.89;99725.90;220288;1256;139734;-65
2023/02/26 13:13:36;;;;;;;7.70;2.90;;;;;;;1.55;71.68;99734.20;220347;1256;141287;-67
2023/02/26 13:18:56;;;;;;;3.90;2.70;;;;;;;1.71;71.85;99731.98;220026;1257;139598;-68
2023/02/26 13:24:38;;;;;;;10.40;4.30;;;;;;;2.06;72.10;99738.78;217828;1256;139452;-66
2023/02/26 13:30:20;;;;;;;4.60;2.60;;;;;;;2.59;71.85;99735.92;216988;1256;139735;-68
2023/02/26 13:35:45;;;;;;;6.20;4.20;;;;;;;2.78;70.75;99739.83;217186;1256;140182;-67
2023/02/26 13:41:11;;;;;;;3.00;1.90;;;;;;;2.62;70.29;99756.77;218606;1256;138903;-69
2023/02/26 13:46:47;;;;;;;2.00;1.70;;;;;;;2.44;70.09;99763.41;217706;1257;139358;-66
2023/02/26 13:52:01;;;;;;;2.30;1.50;;;;;;;2.40;69.99;99768.39;219169;1256;140819;-63
2023/02/26 13:57:36;;;;;;;3.50;1.40;;;;;;;2.41;69.06;99777.06;217444;1256;140529;-66
2023/02/26 14:02:48;;;;;;;2.40;1.20;;;;;;;2.39;68.97;99784.00;217214;1256;244461;-66
2023/02/26 14:08:18;;;;;;;1.50;1.20;;;;;;;2.37;68.67;99789.27;217797;1256;141311;-65
2023/02/26 14:14:03;;;;;;;3.60;1.50;;;;;;;2.28;68.25;99789.94;217323;1256;139215;-65
2023/02/26 14:19:12;;;;;;;4.10;1.70;;;;;;;2.05;67.98;99792.89;217521;1256;139585;-66
2023/02/26 14:24:25;;;;;;;2.20;1.50;;;;;;;1.89;67.69;99804.50;217441;1256;140054;-68
2023/02/26 14:30:16;;;;;;;2.90;1.80;;;;;;;1.78;68.15;99814.46;218527;1257;138395;-70
2023/02/26 14:35:24;;;;;;;4.60;2.40;;;;;;;1.68;68.80;99821.67;218253;1259;139784;-66
2023/02/26 14:40:33;;;;;;;5.50;2.30;;;;;;;1.69;68.95;99820.29;217489;1257;139980;-68
2023/02/26 14:45:43;;;;;;;4.80;1.50;;;;;;;1.78;69.46;99829.46;217405;1256;139606;-65
2023/02/26 14:51:02;;;;;;;8.50;2.50;;;;;;;1.81;70.17;99839.66;217921;1260;139926;-66
2023/02/26 14:56:28;;;;;;;2.40;1.60;;;;;;;1.77;70.17;99847.41;217642;1256;139280;-66
2023/02/26 15:02:03;;;;;;;4.20;1.70;;;;;;;1.75;69.99;99853.34;220360;1256;140126;-69
2023/02/26 15:07:16;;;;;;;4.30;1.90;;;;;;;1.72;70.21;99854.73;220228;1257;139467;-69
2023/02/26 15:12:51;;;;;;;2.70;1.90;;;;;;;1.72;70.26;99859.23;217641;1260;140390;-73
2023/02/26 15:18:02;;;;;;;4.50;2.20;;;;;;;1.74;70.49;99862.02;219142;1256;139529;-70
2023/02/26 15:23:09;;;;;;;2.70;1.90;;;;;;;1.73;70.86;99867.21;217665;1257;138785;-70
2023/02/26 15:28:40;;;;;;;7.70;2.40;;;;;;;1.72;70.78;99868.53;217418;1257;139113;-67
2023/02/26 15:33:44;;;;;;;6.10;2.60;;;;;;;1.69;70.97;99883.08;217964;1256;138998;-65
2023/02/26 15:38:54;;;;;;;5.30;2.30;;;;;;;1.64;71.04;99889.00;217539;1257;139257;-70
2023/02/26 15:44:04;;;;;;;2.10;1.90;;;;;;;1.60;70.95;99897.00;217670;1260;139160;-67
2023/02/26 15:49:29;;;;;;;7.90;2.20;;;;;;;1.57;70.63;99906.31;217567;1256;139231;-72
2023/02/26 15:55:06;;;;;;;5.30;2.20;;;;;;;1.55;70.89;99910.55;217804;1257;139278;-69
2023/02/26 16:00:25;;;;;;;3.20;1.60;;;;;;;1.50;70.68;99917.92;217912;1256;139921;-69
2023/02/26 16:05:29;;;;;;;4.00;1.50;;;;;;;1.46;70.72;99927.30;217425;1257;138705;-67
2023/02/26 16:10:33;;;;;;;4.10;1.90;;;;;;;1.44;70.46;99937.36;217740;1257;139316;-67
2023/02/26 16:15:38;;;;;;;3.60;1.30;;;;;;;1.41;70.51;99948.44;217312;1256;1247493;-66
2023/02/26 16:20:46;;;;;;;1.60;1.40;;;;;;;1.36;70.56;99957.48;217673;1256;139946;-67
2023/02/26 16:25:51;;;;;;;2.80;1.60;;;;;;;1.32;70.66;99967.80;217601;1257;138732;-67
2023/02/26 16:30:59;;;;;;;3.80;2.50;;;;;;;1.26;70.81;99977.92;217653;1260;139368;-67
2023/02/26 16:36:16;;;;;;;4.90;1.60;;;;;;;1.23;70.84;99988.08;217574;1257;138891;-65
2023/02/26 16:41:38;;;;;;;3.40;1.70;;;;;;;1.25;71.05;99990.82;218242;1257;139971;-69
2023/02/26 16:46:51;;;;;;;9.80;2.20;;;;;;;1.21;70.91;100000.55;217516;1260;230203;-68
2023/02/26 16:52:27;;;;;;;8.00;2.20;;;;;;;1.19;70.94;100010.20;219335;1256;139925;-65
2023/02/26 16:57:55;;;;;;;4.30;2.10;;;;;;;1.17;70.75;100023.68;219790;1256;138966;-69
2023/02/26 17:03:20;;;;;;;4.50;2.40;;;;;;;1.16;71.06;100031.40;220062;1256;138733;-69
2023/02/26 17:08:31;;;;;;;8.80;2.30;;;;;;;1.16;71.22;100041.87;217832;1260;140495;-67
2023/02/26 17:13:37;;;;;;;9.00;3.00;;;;;;;1.18;71.08;100047.39;220232;1259;245331;-69
2023/02/26 17:18:43;;;;;;;4.90;2.60;;;;;;;1.18;71.03;100058.31;220190;1256;140538;-68
2023/02/26 17:23:52;;;;;;;2.50;1.60;;;;;;;1.18;70.89;100068.81;218843;1256;139106;-67
2023/02/26 17:29:02;;;;;;;4.40;1.60;;;;;;;1.10;70.86;100079.61;218280;1259;138936;-68
2023/02/26 17:34:10;;;;;;;4.00;1.90;;;;;;;1.01;70.31;100088.60;219048;1257;140625;-63
2023/02/26 17:39:15;;;;;;;5.20;1.50;;;;;;;0.99;70.16;100096.40;217976;1256;139122;-66
2023/02/26 17:44:22;;;;;;;11.70;2.60;;;;;;;0.97;69.88;100099.88;219242;1259;139327;-64
2023/02/26 17:49:33;;;;;;;5.60;1.60;;;;;;;0.93;69.91;100102.11;218750;1257;139407;-66
2023/02/26 17:54:50;;;;;;;5.00;1.80;;;;;;;0.88;69.45;100105.32;217501;1259;138923;-68
2023/02/26 17:59:58;;;;;;;4.10;2.70;;;;;;;0.84;69.50;100110.03;217472;1256;139545;-68
2023/02/26 18:05:07;;;;;;;4.30;1.80;;;;;;;0.81;69.89;100110.55;218706;1259;139559;-70
2023/02/26 18:10:21;;;;;;;2.30;2.10;;;;;;;0.80;69.63;100113.27;217507;1257;139243;-69
2023/02/26 18:15:30;;;;;;;3.80;2.00;;;;;;;0.83;69.53;100120.36;217983;1256;139946;-64
2023/02/26 18:20:44;;;;;;;4.40;2.40;;;;;;;0.86;70.44;100128.89;217934;1257;139441;-64
2023/02/26 18:25:51;;;;;;;2.90;2.00;;;;;;;0.86;69.62;100133.10;217799;1256;139299;-71
2023/02/26 18:31:01;;;;;;;9.10;3.20;;;;;;;0.83;70.17;100140.21;217203;1257;138872;-64
2023/02/26 18:36:33;;;;;;;5.60;2.50;;;;;;;0.80;70.02;100148.56;218205;1257;138844;-67
2023/02/26 18:41:36;;;;;;;4.50;1.90;;;;;;;0.78;70.06;100151.48;217494;1256;139882;-66
2023/02/26 18:46:41;;;;;;;3.60;1.70;;;;;;;0.74;70.06;100158.16;218039;1257;139304;-67
2023/02/26 18:51:44;;;;;;;6.40;2.60;;;;;;;0.72;70.48;100158.41;218163;1258;140693;-64
2023/02/26 18:56:47;;;;;;;4.50;2.20;;;;;;;0.72;70.17;100165.95;217442;1260;138928;-70
2023/02/26 19:01:50;;;;;;;2.90;1.80;;;;;;;0.67;70.33;100173.05;220264;1256;139847;-64
2023/02/26 19:06:53;;;;;;;3.20;2.30;;;;;;;0.62;70.41;100177.48;219424;1256;139193;-66
2023/02/26 19:11:57;;;;;;;4.80;2.40;;;;;;;0.57;70.39;100184.80;220112;1256;138988;-66
2023/02/26 19:17:00;;;;;;;7.80;3.00;;;;;;;0.60;70.47;100187.33;220275;1257;139911;-68
2023/02/26 19:22:05;;;;;;;4.00;2.80;;;;;;;0.63;70.40;100193.64;220195;1256;139851;-64
2023/02/26 19:27:10;;;;;;;5.30;2.40;;;;;;;0.63;70.27;100194.66;218394;1257;139594;-66
2023/02/26 19:32:18;;;;;;;3.80;2.00;;;;;;;0.60;70.15;100201.86;220246;1256;139118;-68
2023/02/26 19:37:23;;;;;;;3.50;2.30;;;;;;;0.55;69.74;100207.18;218862;1261;139409;-64
2023/02/26 19:42:28;;;;;;;4.70;2.20;;;;;;;0.55;69.71;100213.15;218522;1256;139481;-65
2023/02/26 19:47:32;;;;;;;4.40;2.40;;;;;;;0.56;69.83;100216.37;218958;1260;142227;-64
2023/02/26 19:52:36;;;;;;;6.40;2.70;;;;;;;0.55;69.99;100221.60;217939;1256;139124;-64
2023/02/26 19:57:41;;;;;;;7.20;1.70;;;;;;;0.50;70.07;100229.05;218661;1257;138886;-65
2023/02/26 20:02:45;;;;;;;7.70;2.70;;;;;;;0.46;70.07;100237.34;217809;1256;138764;-65
2023/02/26 20:07:48;;;;;;;9.50;2.40;;;;;;;0.45;70.04;100243.98;217598;1261;140190;-64
2023/02/26 20:12:51;;;;;;;3.00;2.20;;;;;;;0.44;69.86;100248.82;217812;1256;138517;-66
2023/02/26 20:17:55;;;;;;;11.30;3.90;;;;;;;0.47;70.54;100253.34;217833;1257;139290;-65
2023/02/26 20:22:58;;;;;;;7.20;3.00;;;;;;;0.50;70.19;100263.35;218053;1256;140481;-66
2023/02/26 20:28:01;;;;;;;5.00;3.70;;;;;;;0.51;70.58;100264.96;218236;1257;138633;-65
2023/02/26 20:33:04;;;;;;;7.20;3.30;;;;;;;0.51;70.88;100270.83;218848;1257;139012;-69
2023/02/26 20:38:08;;;;;;;7.30;3.80;;;;;;;0.50;70.58;100273.02;219204;1260;139288;-65
2023/02/26 20:43:13;;;;;;;6.80;3.80;;;;;;;0.46;70.43;100281.29;217795;1257;139558;-64
2023/02/26 20:48:16;;;;;;;5.70;3.20;;;;;;;0.46;70.68;100285.65;218640;1256;139896;-63
2023/02/26 20:53:20;;;;;;;7.30;3.20;;;;;;;0.47;70.35;100290.58;219141;1256;140136;-64
2023/02/26 20:58:24;;;;;;;3.10;1.90;;;;;;;0.47;70.57;100292.52;219346;1257;140008;-66
2023/02/26 21:03:26;;;;;;;6.50;4.00;;;;;;;0.43;70.59;100294.85;220323;1256;139506;-66
2023/02/26 21:08:29;;;;;;;6.30;2.50;;;;;;;0.40;70.17;100295.48;219210;1257;139683;-66
2023/02/26 21:13:31;;;;;;;7.40;2.50;;;;;;;0.39;70.24;100301.77;220493;1257;139648;-64
2023/02/26 21:18:33;;;;;;;8.60;4.20;;;;;;;0.40;70.04;100307.71;220319;1256;141065;-64
2023/02/26 21:23:36;;;;;;;4.20;2.70;;;;;;;0.43;70.38;100307.08;220258;1260;140183;-66
2023/02/26 21:28:40;;;;;;;4.70;3.00;;;;;;;0.42;69.98;100309.44;218653;1257;138907;-63
2023/02/26 21:33:47;;;;;;;6.30;4.30;;;;;;;0.40;69.93;100314.95;218824;1257;140092;-64
2023/02/26 21:38:51;;;;;;;12.90;4.40;;;;;;;0.37;69.96;100326.05;219313;1256;138874;-65
2023/02/26 21:43:55;;;;;;;6.90;3.00;;;;;;;0.35;70.00;100329.55;218749;1260;139482;-66
2023/02/26 21:49:00;;;;;;;6.80;2.80;;;;;;;0.36;69.95;100338.92;218719;1257;141463;-66
2023/02/26 21:54:04;;;;;;;8.90;4.30;;;;;;;0.36;70.13;100344.17;219269;1256;139866;-66
2023/02/26 21:59:09;;;;;;;9.80;3.60;;;;;;;0.37;70.22;100343.42;217394;1260;139896;-65
2023/02/26 22:04:13;;;;;;;10.30;2.70;;;;;;;0.31;70.32;100346.90;218045;1257;139570;-62
2023/02/26 22:09:20;;;;;;;6.30;2.70;;;;;;;0.25;70.33;100348.08;218329;1260;139366;-65
2023/02/26 22:14:24;;;;;;;;;;;;;;;0.19;70.38;100352.13;218822;1257;141475;-63
2023/02/26 22:19:27;;;;;;;7.70;3.20;;;;;;;0.13;70.28;100355.72;218016;1257;126707;-62
2023/02/26 22:24:31;;;;;;;5.30;3.10;;;;;;;0.13;70.61;100360.66;218166;1257;140080;-64
2023/02/26 22:29:37;;;;;;;5.00;3.10;;;;;;;0.12;70.94;100362.30;217541;1257;139658;-64
2023/02/26 22:34:42;;;;;;;7.20;3.20;;;;;;;0.09;70.92;100369.61;218136;1262;139714;-63
2023/02/26 22:39:48;;;;;;;6.10;2.80;;;;;;;0.06;71.14;100371.15;217903;1257;140128;-66
2023/02/26 22:44:51;;;;;;;10.40;2.70;;;;;;;0.00;71.12;100374.82;219203;1256;139295;-65
2023/02/26 22:49:54;;;;;;;4.30;3.10;;;;;;;0.03;70.91;100378.40;219615;1256;140341;-65
2023/02/26 22:54:59;;;;;;;5.10;2.60;;;;;;;0.09;71.41;100378.65;217757;1258;140247;-63
2023/02/26 23:00:10;;;;;;;13.20;3.20;;;;;;;0.13;70.99;100382.16;217978;1256;139701;-66
2023/02/26 23:05:13;;;;;;;7.70;3.20;;;;;;;0.12;71.28;100392.55;219227;1256;139217;-70
2023/02/26 23:10:17;;;;;;;6.80;3.30;;;;;;;0.12;71.50;100397.59;218092;1256;139931;-70
2023/02/26 23:15:20;;;;;;;6.90;4.00;;;;;;;0.16;71.43;100405.48;219960;1260;138968;-71
2023/02/26 23:20:22;;;;;;;8.10;3.50;;;;;;;0.16;71.61;100409.65;217784;1262;140139;-70
2023/02/26 23:25:25;;;;;;;11.20;3.20;;;;;;;0.14;71.44;100413.70;219254;1257;139331;-72
2023/02/26 23:30:30;;;;;;;9.10;2.70;;;;;;;0.13;71.51;100422.14;220385;1256;140217;-70
2023/02/26 23:35:34;;;;;;;6.00;3.30;;;;;;;0.19;71.18;100425.61;217765;1260;140041;-68
2023/02/26 23:40:37;;;;;;;8.60;3.80;;;;;;;0.21;71.25;100431.89;217578;1257;139804;-67
2023/02/26 23:45:40;;;;;;;8.50;3.10;;;;;;;0.18;71.55;100430.35;217934;1257;138936;-67
2023/02/26 23:50:46;;;;;;;11.40;3.90;;;;;;;0.17;71.40;100427.66;218767;1258;139010;-66